Time;durP1;ratioP1;P1;durP2;ratioP2;P2;SDS_P1;SDS_P2;PMS_P1;PMS_P2;Temp;Humidity;BMP_temperature;BMP_pressure;BME280_temperature;BME280_humidity;BME280_pressure;Samples;Min_cycle;Max_cycle;Signal;HPM_P1;HPM_P2
2022/09/23 00:00:46;;;;;;;10.07;7.60;;;11.20;96.90;;;;;;4963360;28;20466;-73
2022/09/23 00:03:13;;;;;;;11.60;7.05;;;11.20;97.00;;;;;;4975527;28;20037;-73
2022/09/23 00:05:38;;;;;;;10.20;6.72;;;11.20;97.00;;;;;;4975330;28;20030;-73
2022/09/23 00:08:06;;;;;;;9.65;7.22;;;11.20;97.00;;;;;;4975686;28;20049;-73
2022/09/23 00:10:34;;;;;;;10.90;7.50;;;11.10;97.10;;;;;;4978173;28;20030;-73
2022/09/23 00:13:00;;;;;;;10.70;7.72;;;11.10;97.10;;;;;;4974390;28;20069;-73
2022/09/23 00:15:29;;;;;;;10.80;7.40;;;11.10;97.10;;;;;;4976733;28;20057;-73
2022/09/23 00:17:55;;;;;;;12.20;7.22;;;11.10;97.20;;;;;;4976137;28;20030;-73
2022/09/23 00:20:21;;;;;;;9.85;7.07;;;11.00;97.20;;;;;;4975800;28;20077;-73
2022/09/23 00:22:47;;;;;;;10.57;7.43;;;11.00;97.30;;;;;;4975030;28;20033;-73
2022/09/23 00:25:12;;;;;;;11.25;7.32;;;11.00;97.30;;;;;;4976676;28;20037;-73
2022/09/23 00:27:38;;;;;;;10.23;6.40;;;11.00;97.30;;;;;;4975833;28;20046;-73
2022/09/23 00:30:06;;;;;;;9.00;7.05;;;11.00;97.30;;;;;;4982415;28;20470;-73
2022/09/23 00:32:32;;;;;;;9.88;6.90;;;11.00;97.40;;;;;;4985063;28;20041;-72
2022/09/23 00:34:58;;;;;;;9.88;7.38;;;11.00;97.40;;;;;;4979528;28;20046;-72
2022/09/23 00:37:24;;;;;;;8.95;6.80;;;10.90;97.40;;;;;;4978222;28;20046;-72
2022/09/23 00:39:51;;;;;;;9.40;7.78;;;11.00;97.50;;;;;;4979518;28;20445;-72
2022/09/23 00:42:19;;;;;;;9.32;6.70;;;10.90;97.40;;;;;;4976755;28;20033;-72
2022/09/23 00:44:57;;;;;;;10.20;6.78;;;10.90;97.50;;;;;;4980184;28;20418;-72
2022/09/23 00:47:32;;;;;;;10.43;6.78;;;10.90;97.50;;;;;;4977627;28;20125;-72
2022/09/23 00:50:11;;;;;;;11.27;6.63;;;10.80;97.50;;;;;;4979634;28;20076;-72
2022/09/23 00:52:38;;;;;;;9.40;6.85;;;10.80;97.50;;;;;;4977805;28;20027;-71
2022/09/23 00:55:09;;;;;;;9.93;6.38;;;10.80;97.50;;;;;;4979641;28;20153;-72
2022/09/23 00:57:36;;;;;;;8.10;5.97;;;10.80;97.50;;;;;;4979073;28;20030;-72
2022/09/23 01:00:03;;;;;;;7.95;6.72;;;10.80;97.60;;;;;;4979520;28;20046;-72
2022/09/23 01:02:30;;;;;;;9.48;7.32;;;10.80;97.60;;;;;;4976516;28;20423;-71
2022/09/23 01:04:56;;;;;;;9.00;6.88;;;10.70;97.60;;;;;;4980060;28;20159;-71
2022/09/23 01:07:22;;;;;;;9.50;7.25;;;10.70;97.60;;;;;;4977463;28;20026;-71
2022/09/23 01:09:48;;;;;;;9.55;6.68;;;10.70;97.70;;;;;;4962294;28;20045;-71
2022/09/23 01:12:22;;;;;;;9.65;6.38;;;10.70;97.70;;;;;;4977682;28;20035;-71
2022/09/23 01:15:06;;;;;;;11.02;6.38;;;10.70;97.70;;;;;;4977573;28;20377;-71
2022/09/23 01:17:51;;;;;;;11.13;6.68;;;10.70;97.80;;;;;;4975301;28;20043;-71
2022/09/23 01:20:40;;;;;;;9.93;6.85;;;10.70;97.70;;;;;;4981753;28;20433;-71
2022/09/23 01:23:21;;;;;;;10.10;6.40;;;10.70;97.80;;;;;;4977965;28;20037;-71
2022/09/23 01:25:56;;;;;;;11.27;6.60;;;10.70;97.80;;;;;;4976823;28;20433;-70
2022/09/23 01:28:27;;;;;;;8.65;6.72;;;10.60;97.80;;;;;;4979138;28;20073;-71
2022/09/23 01:31:21;;;;;;;8.75;6.45;;;10.60;97.70;;;;;;4980754;28;20081;-71
2022/09/23 01:34:08;;;;;;;9.30;6.10;;;10.60;97.80;;;;;;4979119;28;20023;-71
2022/09/23 01:36:40;;;;;;;10.73;7.15;;;10.50;97.80;;;;;;4976216;28;20397;-70
2022/09/23 01:39:21;;;;;;;9.32;7.05;;;10.50;97.70;;;;;;4976104;28;20482;-70
2022/09/23 01:42:01;;;;;;;11.07;6.65;;;10.50;97.90;;;;;;4976367;28;20409;-71
2022/09/23 01:44:50;;;;;;;7.70;6.60;;;10.50;97.90;;;;;;4979933;28;20022;-71
2022/09/23 01:47:21;;;;;;;9.77;7.10;;;10.40;97.90;;;;;;4981487;28;20387;-71
2022/09/23 01:49:57;;;;;;;10.18;6.10;;;10.50;97.90;;;;;;4980505;28;20022;-71
2022/09/23 01:52:43;;;;;;;9.60;6.57;;;10.40;97.90;;;;;;4964207;28;20402;-71
2022/09/23 01:55:38;;;;;;;;;;;10.40;97.90;;;;;;4980402;28;20038;-72
2022/09/23 01:58:06;;;;;;;10.32;6.60;;;10.40;97.60;;;;;;4963126;28;20377;-73
2022/09/23 02:00:36;;;;;;;9.70;6.13;;;10.40;97.90;;;;;;4979117;28;20118;-73
2022/09/23 02:03:12;;;;;;;8.90;6.47;;;10.30;98.00;;;;;;4980431;28;20042;-72
2022/09/23 02:05:50;;;;;;;8.55;6.10;;;10.40;98.10;;;;;;4979546;28;20089;-73
2022/09/23 02:08:45;;;;;;;9.45;7.05;;;10.30;98.20;;;;;;4980902;28;20498;-73
2022/09/23 02:11:14;;;;;;;9.50;5.95;;;10.40;98.30;;;;;;4972370;28;20486;-73
2022/09/23 02:14:00;;;;;;;9.13;6.53;;;10.40;98.30;;;;;;4979427;28;20481;-72
2022/09/23 02:16:33;;;;;;;8.63;6.30;;;10.30;98.30;;;;;;4979041;28;20057;-73
2022/09/23 02:19:54;;;;;;;8.43;6.73;;;10.30;98.30;;;;;;4979989;28;20498;-72
2022/09/23 02:22:24;;;;;;;10.93;6.20;;;10.30;98.40;;;;;;4947851;28;20305;-72
2022/09/23 02:24:50;;;;;;;10.57;6.10;;;10.30;98.30;;;;;;4979665;28;20125;-73
2022/09/23 02:27:49;;;;;;;11.55;6.65;;;10.30;98.40;;;;;;4979524;28;20043;-73
2022/09/23 02:30:26;;;;;;;12.18;6.82;;;10.30;98.50;;;;;;4979199;28;20035;-73
2022/09/23 02:33:03;;;;;;;10.45;7.38;;;10.30;98.40;;;;;;4980575;28;20437;-73
2022/09/23 02:35:33;;;;;;;10.65;6.85;;;10.30;98.50;;;;;;4984741;28;20038;-73
2022/09/23 02:38:20;;;;;;;9.70;7.13;;;10.30;98.50;;;;;;4979789;28;20437;-73
2022/09/23 02:41:00;;;;;;;10.73;6.47;;;10.30;98.60;;;;;;4979121;28;20030;-73
2022/09/23 02:44:01;;;;;;;12.45;7.55;;;10.30;98.60;;;;;;4979101;28;20038;-73
2022/09/23 02:46:28;;;;;;;9.93;6.68;;;10.30;98.50;;;;;;4966874;28;20038;-73
2022/09/23 02:48:59;;;;;;;8.98;6.57;;;10.30;98.50;;;;;;4980116;28;20393;-73
2022/09/23 02:51:27;;;;;;;8.95;7.13;;;10.30;98.60;;;;;;4978866;28;20018;-74
2022/09/23 02:53:55;;;;;;;11.23;7.40;;;10.20;98.60;;;;;;4980325;28;20040;-74
2022/09/23 02:56:23;;;;;;;10.40;6.90;;;10.20;98.60;;;;;;4978627;28;20050;-73
2022/09/23 02:58:52;;;;;;;10.57;7.07;;;10.20;98.70;;;;;;4978226;28;20621;-73
2022/09/23 03:01:53;;;;;;;9.63;6.82;;;10.20;98.70;;;;;;4978758;28;20045;-72
2022/09/23 03:04:37;;;;;;;8.38;6.75;;;10.20;98.70;;;;;;4979177;28;20039;-72
2022/09/23 03:07:20;;;;;;;9.30;6.40;;;10.20;98.70;;;;;;4978322;28;20034;-72
2022/09/23 03:09:56;;;;;;;11.02;6.53;;;10.20;98.70;;;;;;4978593;28;20037;-73
2022/09/23 03:12:47;;;;;;;9.95;7.05;;;10.20;98.80;;;;;;4979443;28;20027;-72
2022/09/23 03:15:46;;;;;;;9.63;6.93;;;10.20;98.80;;;;;;4967886;28;20039;-73
2022/09/23 03:18:14;;;;;;;9.77;6.20;;;10.10;98.80;;;;;;4979423;28;20034;-73
2022/09/23 03:20:57;;;;;;;10.05;6.50;;;10.10;98.80;;;;;;4977550;28;20045;-73
2022/09/23 03:23:33;;;;;;;8.63;6.28;;;10.00;98.90;;;;;;4979629;28;20042;-72
2022/09/23 03:26:05;;;;;;;8.63;6.30;;;10.00;98.90;;;;;;4977671;28;20023;-73
2022/09/23 03:28:33;;;;;;;10.18;6.45;;;10.00;98.90;;;;;;4979189;28;20046;-72
2022/09/23 03:31:01;;;;;;;8.80;6.53;;;10.00;99.00;;;;;;4977879;28;20026;-72
2022/09/23 03:33:27;;;;;;;12.13;6.93;;;10.00;99.00;;;;;;4978044;28;20035;-73
2022/09/23 03:38:50;;;;;;;9.35;6.65;;;10.00;99.10;;;;;;4979662;28;20117;-72
2022/09/23 03:41:27;;;;;;;8.82;6.70;;;10.00;99.00;;;;;;4977324;28;20046;-72
2022/09/23 03:43:57;;;;;;;8.60;6.35;;;9.90;99.00;;;;;;4979844;28;20043;-72
2022/09/23 03:46:28;;;;;;;10.02;6.32;;;10.00;99.00;;;;;;4979561;28;20045;-73
2022/09/23 03:49:21;;;;;;;7.70;5.78;;;9.90;99.00;;;;;;4978816;28;20030;-72
2022/09/23 03:51:47;;;;;;;12.40;6.50;;;9.90;99.10;;;;;;4963778;28;20484;-73
2022/09/23 03:54:13;;;;;;;9.85;6.20;;;9.90;99.00;;;;;;4979177;28;20041;-72
2022/09/23 03:56:38;;;;;;;8.65;6.47;;;9.90;99.00;;;;;;4978360;28;20058;-73
2022/09/23 03:59:04;;;;;;;8.95;6.55;;;9.80;98.90;;;;;;4978290;28;20053;-73
2022/09/23 04:01:30;;;;;;;8.75;5.70;;;9.80;98.90;;;;;;4977815;28;20045;-72
2022/09/23 04:03:55;;;;;;;8.60;6.03;;;9.80;99.00;;;;;;4981946;28;20053;-72
2022/09/23 04:06:21;;;;;;;8.90;6.32;;;9.80;99.10;;;;;;4981337;28;20089;-73
2022/09/23 04:08:46;;;;;;;10.32;6.25;;;9.80;99.10;;;;;;4965588;28;20029;-71
2022/09/23 04:11:12;;;;;;;13.48;6.63;;;9.80;99.20;;;;;;4981390;28;20441;-73
2022/09/23 04:13:38;;;;;;;11.90;6.35;;;9.70;99.20;;;;;;4982630;28;20432;-73
2022/09/23 04:16:03;;;;;;;10.57;6.78;;;9.70;99.30;;;;;;4980760;28;20476;-73
2022/09/23 04:18:30;;;;;;;8.55;5.75;;;9.70;99.30;;;;;;4983456;28;20477;-73
2022/09/23 04:20:59;;;;;;;10.73;6.00;;;9.70;99.30;;;;;;4981961;28;20044;-72
2022/09/23 04:23:25;;;;;;;9.45;6.25;;;9.70;99.40;;;;;;4982062;28;20121;-73
2022/09/23 04:25:52;;;;;;;9.73;6.88;;;9.70;99.40;;;;;;4980894;28;20426;-73
2022/09/23 04:28:18;;;;;;;13.32;6.80;;;9.70;99.40;;;;;;4982201;28;20058;-73
2022/09/23 04:30:45;;;;;;;10.68;6.65;;;9.70;99.40;;;;;;4986014;28;20062;-72
2022/09/23 04:33:11;;;;;;;10.25;6.82;;;9.60;99.40;;;;;;4982939;28;20758;-73
2022/09/23 04:35:38;;;;;;;8.93;6.70;;;9.60;99.40;;;;;;4981130;28;20100;-73
2022/09/23 04:38:04;;;;;;;10.38;7.13;;;9.60;99.50;;;;;;4981851;28;20043;-73
2022/09/23 04:40:30;;;;;;;10.35;6.82;;;9.60;99.50;;;;;;4980740;28;20046;-73
2022/09/23 04:42:56;;;;;;;10.13;6.95;;;9.60;99.50;;;;;;4982694;28;20730;-73
2022/09/23 04:45:21;;;;;;;11.15;6.70;;;9.60;99.50;;;;;;4981266;28;20157;-72
2022/09/23 04:47:47;;;;;;;10.90;6.53;;;9.60;99.50;;;;;;4981748;28;20413;-73
2022/09/23 04:50:15;;;;;;;7.60;6.20;;;9.60;99.50;;;;;;4981545;28;20398;-73
2022/09/23 04:52:41;;;;;;;8.90;6.53;;;9.50;99.50;;;;;;4981545;28;20026;-73
2022/09/23 04:55:07;;;;;;;7.68;6.57;;;9.50;99.50;;;;;;4979987;28;20053;-73
2022/09/23 04:57:33;;;;;;;7.80;5.93;;;9.50;99.50;;;;;;4981432;28;20061;-70
2022/09/23 04:59:59;;;;;;;9.75;5.63;;;9.50;99.50;;;;;;4979544;28;20050;-73
2022/09/23 05:02:27;;;;;;;10.95;5.85;;;9.50;99.60;;;;;;4981435;28;20046;-73
2022/09/23 05:04:54;;;;;;;8.55;5.53;;;9.40;99.60;;;;;;4964107;28;20138;-73
2022/09/23 05:07:20;;;;;;;7.47;5.60;;;9.40;99.60;;;;;;4979954;28;20047;-73
2022/09/23 05:09:45;;;;;;;8.18;5.20;;;9.40;99.60;;;;;;4976673;28;20042;-74
2022/09/23 05:12:11;;;;;;;8.82;5.82;;;9.40;99.60;;;;;;4977451;28;20060;-73
2022/09/23 05:14:38;;;;;;;7.15;5.30;;;9.40;99.50;;;;;;4977418;28;20030;-73
2022/09/23 05:17:04;;;;;;;6.60;4.47;;;9.30;99.50;;;;;;4977899;28;20653;-73
2022/09/23 05:19:30;;;;;;;7.15;5.25;;;9.30;99.50;;;;;;4978864;28;20035;-73
2022/09/23 05:21:55;;;;;;;7.35;5.05;;;9.30;99.50;;;;;;4976890;28;20398;-73
2022/09/23 05:24:23;;;;;;;6.97;4.80;;;9.30;99.60;;;;;;4979045;28;20027;-73
2022/09/23 05:26:48;;;;;;;6.75;4.95;;;9.30;99.60;;;;;;4976801;28;20584;-74
2022/09/23 05:29:14;;;;;;;7.75;5.18;;;9.30;99.60;;;;;;4978404;28;20117;-74
2022/09/23 05:31:39;;;;;;;6.22;4.97;;;9.30;99.60;;;;;;4976831;28;20101;-73
2022/09/23 05:34:06;;;;;;;9.63;4.97;;;9.20;99.60;;;;;;4984332;28;20029;-73
2022/09/23 05:36:35;;;;;;;7.07;4.72;;;9.20;99.70;;;;;;4977349;28;20034;-73
2022/09/23 05:39:01;;;;;;;8.25;5.20;;;9.20;99.70;;;;;;4978272;28;20106;-73
2022/09/23 05:41:26;;;;;;;6.57;4.85;;;9.20;99.80;;;;;;4977028;28;20485;-73
2022/09/23 05:43:54;;;;;;;7.47;4.82;;;9.30;99.80;;;;;;4977548;28;20030;-73
2022/09/23 05:46:24;;;;;;;7.00;5.25;;;9.30;99.80;;;;;;4980477;28;20046;-73
2022/09/23 05:48:50;;;;;;;8.10;4.97;;;9.30;99.80;;;;;;4980792;28;20073;-74
2022/09/23 05:51:21;;;;;;;8.20;5.22;;;9.30;99.80;;;;;;4980677;28;20038;-73
2022/09/23 05:53:48;;;;;;;6.00;4.57;;;9.30;99.80;;;;;;4979902;28;20092;-71
2022/09/23 05:56:16;;;;;;;8.80;5.65;;;9.40;99.80;;;;;;4980296;28;20038;-72
2022/09/23 05:58:42;;;;;;;11.63;6.05;;;9.40;99.90;;;;;;4979366;28;20073;-71
2022/09/23 06:01:13;;;;;;;7.70;4.97;;;9.40;99.80;;;;;;4979696;28;20129;-73
2022/09/23 06:03:40;;;;;;;7.70;5.50;;;9.50;99.90;;;;;;4980090;28;20026;-79
2022/09/23 06:06:06;;;;;;;7.13;4.95;;;9.50;99.80;;;;;;4979070;28;20038;-72
2022/09/23 06:08:33;;;;;;;7.90;5.15;;;9.50;99.80;;;;;;4978835;28;20953;-72
2022/09/23 06:11:06;;;;;;;8.68;5.05;;;9.50;99.80;;;;;;4979127;28;20096;-72
2022/09/23 06:13:36;;;;;;;6.95;5.10;;;9.60;99.90;;;;;;4979119;28;20045;-72
2022/09/23 06:16:10;;;;;;;8.40;5.50;;;9.60;99.90;;;;;;4979200;28;20038;-72
2022/09/23 06:18:41;;;;;;;10.60;6.20;;;9.60;99.90;;;;;;4980933;28;20108;-72
2022/09/23 06:21:10;;;;;;;10.18;5.78;;;9.70;99.90;;;;;;4978466;28;20070;-73
2022/09/23 06:23:38;;;;;;;8.38;5.00;;;9.70;99.90;;;;;;4979169;28;20033;-73
2022/09/23 06:26:06;;;;;;;9.57;5.68;;;9.80;99.90;;;;;;4978232;28;21547;-73
2022/09/23 06:28:34;;;;;;;6.93;5.50;;;9.80;99.90;;;;;;4979653;28;20124;-71
2022/09/23 06:31:04;;;;;;;6.70;5.20;;;9.90;99.90;;;;;;4980550;28;20040;-72
2022/09/23 06:33:30;;;;;;;9.05;5.45;;;9.90;99.90;;;;;;4982133;28;20370;-72
2022/09/23 06:36:02;;;;;;;8.38;5.88;;;9.90;99.80;;;;;;4984715;28;20034;-72
2022/09/23 06:38:28;;;;;;;8.48;6.10;;;10.00;99.80;;;;;;4978596;28;20044;-72
2022/09/23 06:40:55;;;;;;;9.25;6.40;;;10.00;99.80;;;;;;4980249;28;20038;-72
2022/09/23 06:43:23;;;;;;;11.13;5.82;;;10.10;99.80;;;;;;4978311;28;20121;-72
2022/09/23 06:45:56;;;;;;;12.40;6.18;;;10.10;99.80;;;;;;4979073;28;20155;-72
2022/09/23 06:48:23;;;;;;;7.90;5.30;;;10.10;99.80;;;;;;4981029;28;20049;-72
2022/09/23 06:50:50;;;;;;;9.27;5.97;;;10.20;99.80;;;;;;4981824;28;20503;-72
2022/09/23 06:53:16;;;;;;;9.45;6.07;;;10.30;99.80;;;;;;4976259;28;20026;-71
2022/09/23 06:55:42;;;;;;;10.73;6.18;;;10.40;99.70;;;;;;4975986;28;20030;-75
2022/09/23 06:58:08;;;;;;;9.98;5.80;;;10.40;99.70;;;;;;4977929;28;20482;-73
2022/09/23 07:00:35;;;;;;;8.65;5.70;;;10.50;99.80;;;;;;4974446;28;20039;-73
2022/09/23 07:03:08;;;;;;;8.98;5.80;;;10.60;99.80;;;;;;4978621;28;20030;-73
2022/09/23 07:05:35;;;;;;;12.65;5.78;;;10.60;99.80;;;;;;4975790;28;20397;-73
2022/09/23 07:08:00;;;;;;;7.60;5.20;;;10.70;99.70;;;;;;4976277;28;20060;-73
2022/09/23 07:10:29;;;;;;;9.60;5.45;;;10.80;99.70;;;;;;4974020;28;20124;-73
2022/09/23 07:12:55;;;;;;;8.45;5.90;;;10.90;99.70;;;;;;4975682;28;20030;-74
2022/09/23 07:15:21;;;;;;;6.70;5.28;;;10.90;99.70;;;;;;4974196;28;20054;-74
2022/09/23 07:17:46;;;;;;;9.38;5.80;;;11.00;99.60;;;;;;4974498;28;20358;-74
2022/09/23 07:20:12;;;;;;;9.57;6.10;;;11.10;99.50;;;;;;4974432;28;20038;-71
2022/09/23 07:22:38;;;;;;;8.40;6.07;;;11.20;99.50;;;;;;4975670;28;20038;-71
2022/09/23 07:25:05;;;;;;;7.63;5.28;;;11.30;99.40;;;;;;4977604;28;20450;-74
2022/09/23 07:27:32;;;;;;;8.02;4.95;;;11.30;99.30;;;;;;4982127;28;20516;-73
2022/09/23 07:29:57;;;;;;;7.93;5.75;;;11.40;99.20;;;;;;4981632;28;20081;-73
2022/09/23 07:32:24;;;;;;;8.82;5.43;;;11.50;99.30;;;;;;4960894;28;20524;-73
2022/09/23 07:34:50;;;;;;;9.80;5.03;;;11.60;99.40;;;;;;4980002;28;20022;-73
2022/09/23 07:37:17;;;;;;;8.93;5.25;;;11.70;99.50;;;;;;4981953;28;20084;-72
2022/09/23 07:39:43;;;;;;;8.27;5.57;;;11.80;99.40;;;;;;4983930;28;20034;-71
2022/09/23 07:42:11;;;;;;;7.05;5.15;;;11.90;99.30;;;;;;4983843;28;20127;-73
2022/09/23 07:44:36;;;;;;;8.27;5.00;;;12.00;99.30;;;;;;4982016;28;20118;-72
2022/09/23 07:47:02;;;;;;;10.38;5.55;;;12.10;99.20;;;;;;4984336;28;20756;-73
2022/09/23 07:49:28;;;;;;;9.88;5.00;;;12.10;99.10;;;;;;4984977;28;20446;-72
2022/09/23 07:51:54;;;;;;;8.68;5.18;;;12.20;99.10;;;;;;4981411;28;20060;-73
2022/09/23 07:54:20;;;;;;;8.63;5.53;;;12.30;99.10;;;;;;4983585;28;20026;-73
2022/09/23 07:56:46;;;;;;;8.20;5.35;;;12.40;99.00;;;;;;4983375;28;20034;-71
2022/09/23 07:59:16;;;;;;;7.80;4.93;;;12.50;99.00;;;;;;4983612;28;20066;-73
2022/09/23 08:01:46;;;;;;;7.20;5.25;;;12.60;99.20;;;;;;4983539;28;20469;-72
2022/09/23 08:04:19;;;;;;;6.80;5.30;;;12.70;99.00;;;;;;4983940;28;20593;-72
2022/09/23 08:06:51;;;;;;;7.10;5.45;;;12.80;98.70;;;;;;4981901;28;20489;-72
2022/09/23 08:09:18;;;;;;;6.93;5.15;;;12.90;98.80;;;;;;4982930;28;20046;-73
2022/09/23 08:11:44;;;;;;;10.13;5.03;;;13.00;98.60;;;;;;4982036;28;20026;-73
2022/09/23 08:14:12;;;;;;;9.23;5.22;;;13.00;98.70;;;;;;4980944;28;20037;-73
2022/09/23 08:16:38;;;;;;;7.78;4.78;;;13.10;98.60;;;;;;4981223;28;20030;-73
2022/09/23 08:19:05;;;;;;;7.43;4.97;;;13.20;98.50;;;;;;4982527;28;20575;-74
2022/09/23 08:21:31;;;;;;;8.40;4.40;;;13.30;98.40;;;;;;4980754;28;20406;-74
2022/09/23 08:23:56;;;;;;;6.75;4.50;;;13.30;98.40;;;;;;4979266;28;20030;-74
2022/09/23 08:26:22;;;;;;;7.50;4.43;;;13.40;98.40;;;;;;4977289;28;20489;-74
2022/09/23 08:28:48;;;;;;;7.97;4.80;;;13.50;98.40;;;;;;4976662;28;20475;-74
2022/09/23 08:31:14;;;;;;;6.57;4.53;;;13.60;98.20;;;;;;4982949;28;20035;-72
2022/09/23 08:33:40;;;;;;;7.95;5.20;;;13.70;98.10;;;;;;4977012;28;20022;-75
2022/09/23 08:36:06;;;;;;;6.43;4.75;;;13.80;98.00;;;;;;4976671;28;20041;-75
2022/09/23 08:38:32;;;;;;;6.18;4.28;;;13.80;97.90;;;;;;4978753;28;20050;-75
2022/09/23 08:41:23;;;;;;;9.30;5.38;;;13.90;97.80;;;;;;4978307;28;20077;-74
2022/09/23 08:43:53;;;;;;;8.38;4.15;;;14.00;97.80;;;;;;4962876;28;20029;-75
2022/09/23 08:46:25;;;;;;;8.07;4.03;;;14.00;97.70;;;;;;4976358;28;20038;-75
2022/09/23 08:48:51;;;;;;;6.95;4.20;;;14.10;97.40;;;;;;4976356;28;20033;-75
2022/09/23 08:51:24;;;;;;;7.80;4.20;;;14.20;97.30;;;;;;4977899;28;20030;-75
2022/09/23 08:53:50;;;;;;;5.15;3.40;;;14.20;97.00;;;;;;4962955;28;20545;-75
2022/09/23 08:56:18;;;;;;;4.90;3.58;;;14.30;97.20;;;;;;4958967;28;20606;-75
2022/09/23 08:58:53;;;;;;;5.28;3.40;;;14.30;97.10;;;;;;4976973;28;20041;-76
2022/09/23 09:01:22;;;;;;;6.80;3.53;;;14.40;97.20;;;;;;4977569;28;20121;-76
2022/09/23 09:03:55;;;;;;;5.55;3.08;;;14.50;97.10;;;;;;4974460;28;20029;-74
2022/09/23 09:06:36;;;;;;;4.10;3.17;;;14.50;96.90;;;;;;4975556;28;20034;-74
2022/09/23 09:09:04;;;;;;;6.32;3.90;;;14.60;96.70;;;;;;4980140;28;20125;-74
2022/09/23 09:11:37;;;;;;;7.65;3.08;;;14.60;96.60;;;;;;4976231;28;20030;-74
2022/09/23 09:14:14;;;;;;;4.95;3.10;;;14.70;96.60;;;;;;4977481;28;20038;-74
2022/09/23 09:16:49;;;;;;;5.35;3.10;;;14.70;96.30;;;;;;4975253;28;20057;-74
2022/09/23 09:19:20;;;;;;;4.53;3.20;;;14.80;96.40;;;;;;4976257;28;20041;-74
2022/09/23 09:21:52;;;;;;;5.13;3.05;;;14.80;96.40;;;;;;4975676;28;20092;-75
2022/09/23 09:24:29;;;;;;;5.00;2.90;;;14.90;96.20;;;;;;4976328;28;20225;-75
2022/09/23 09:26:55;;;;;;;4.00;3.00;;;15.00;96.00;;;;;;4941866;28;1035894;-75
2022/09/23 09:29:30;;;;;;;6.38;2.65;;;15.00;95.90;;;;;;4977514;28;20050;-74
2022/09/23 09:31:56;;;;;;;4.63;2.83;;;15.10;95.70;;;;;;4980270;28;20062;-75
2022/09/23 09:34:42;;;;;;;4.40;2.80;;;15.10;95.50;;;;;;4977632;28;20034;-75
2022/09/23 09:37:22;;;;;;;3.85;2.38;;;15.20;95.50;;;;;;4976730;28;20038;-75
2022/09/23 09:39:47;;;;;;;4.00;2.35;;;15.30;95.50;;;;;;4977209;28;20513;-75
2022/09/23 09:42:20;;;;;;;5.70;2.67;;;15.30;95.30;;;;;;4975712;28;20049;-75
2022/09/23 09:44:52;;;;;;;2.92;2.28;;;15.40;94.90;;;;;;4974429;28;20023;-75
2022/09/23 09:47:47;;;;;;;6.50;2.42;;;15.50;94.80;;;;;;4978001;28;20042;-74
2022/09/23 09:50:20;;;;;;;2.95;2.15;;;15.50;94.60;;;;;;4923115;28;20040;-75
2022/09/23 09:52:47;;;;;;;4.28;2.35;;;15.60;94.80;;;;;;4973715;28;20113;-75
2022/09/23 09:55:12;;;;;;;3.65;2.50;;;15.70;94.60;;;;;;4971670;28;20104;-75
2022/09/23 09:57:54;;;;;;;5.43;2.28;;;15.70;94.50;;;;;;4973977;28;20478;-75
2022/09/23 10:00:24;;;;;;;2.70;2.10;;;15.80;94.20;;;;;;4971227;28;20132;-74
2022/09/23 10:03:01;;;;;;;4.03;2.40;;;15.80;94.00;;;;;;4977137;28;20057;-75
2022/09/23 10:05:44;;;;;;;6.05;2.38;;;15.90;93.70;;;;;;4974839;28;20026;-75
2022/09/23 10:08:34;;;;;;;4.10;2.40;;;15.90;93.10;;;;;;4978810;28;20048;-75
2022/09/23 10:11:10;;;;;;;3.25;1.88;;;16.00;93.30;;;;;;4979726;28;22396;-75
2022/09/23 10:13:36;;;;;;;2.97;2.10;;;16.00;93.30;;;;;;4979324;28;20038;-76
2022/09/23 10:16:03;;;;;;;3.22;1.83;;;16.20;93.40;;;;;;4972986;28;20266;-74
2022/09/23 10:18:45;;;;;;;3.15;1.92;;;16.20;92.50;;;;;;4977383;28;20336;-75
2022/09/23 10:21:13;;;;;;;3.65;1.80;;;16.30;92.20;;;;;;4975952;28;20038;-73
2022/09/23 10:23:43;;;;;;;2.30;1.50;;;16.40;91.90;;;;;;4975473;28;20045;-75
2022/09/23 10:26:11;;;;;;;4.75;1.67;;;16.40;91.40;;;;;;4975717;28;20042;-74
2022/09/23 10:28:54;;;;;;;3.08;1.60;;;16.50;91.60;;;;;;4977256;28;20042;-74
2022/09/23 10:31:29;;;;;;;2.00;1.60;;;16.50;90.80;;;;;;4971044;28;20023;-74
2022/09/23 10:34:18;;;;;;;2.78;2.10;;;16.60;90.80;;;;;;4984669;28;20026;-73
2022/09/23 10:37:10;;;;;;;2.15;1.60;;;16.60;90.60;;;;;;4952680;28;20051;-74
2022/09/23 10:48:53;;;;;;;2.25;1.73;;;16.90;90.00;;;;;;4974508;28;20073;-73
2022/09/23 10:51:44;;;;;;;3.33;1.80;;;17.00;90.00;;;;;;4974688;28;20088;-73
2022/09/23 10:54:42;;;;;;;2.50;1.73;;;17.10;90.40;;;;;;4975403;28;20088;-72
2022/09/23 10:57:36;;;;;;;5.18;1.95;;;17.10;90.00;;;;;;4957130;28;20049;-73
2022/09/23 11:00:13;;;;;;;4.60;1.70;;;17.20;89.60;;;;;;4976364;28;20046;-73
2022/09/23 11:03:01;;;;;;;4.65;2.25;;;17.30;89.30;;;;;;4975492;28;20060;-73
2022/09/23 11:05:50;;;;;;;2.05;1.40;;;17.40;89.30;;;;;;4974165;28;20124;-71
2022/09/23 11:08:35;;;;;;;1.92;1.45;;;17.50;88.00;;;;;;4974778;28;20433;-73
2022/09/23 11:11:10;;;;;;;4.43;1.70;;;17.60;87.30;;;;;;4967196;28;20196;-73
2022/09/23 11:14:05;;;;;;;3.47;1.70;;;17.70;87.70;;;;;;4970500;28;20026;-73
2022/09/23 11:17:06;;;;;;;2.40;1.80;;;17.70;87.60;;;;;;4969098;28;20042;-73
2022/09/23 11:19:56;;;;;;;3.28;1.80;;;17.80;87.30;;;;;;4954479;28;20035;-73
2022/09/23 11:22:38;;;;;;;2.35;1.70;;;17.80;87.90;;;;;;4966086;28;20512;-74
2022/09/23 11:25:29;;;;;;;2.92;2.10;;;17.90;87.80;;;;;;4965524;28;20342;-74
2022/09/23 11:28:02;;;;;;;2.38;1.70;;;17.90;87.50;;;;;;4960431;28;20301;-74
2022/09/23 11:30:52;;;;;;;2.20;1.48;;;18.00;85.50;;;;;;4972555;28;22613;-73
2022/09/23 11:33:51;;;;;;;2.38;1.60;;;18.00;85.30;;;;;;4973698;28;20047;-74
2022/09/23 11:36:22;;;;;;;2.45;1.60;;;18.00;86.00;;;;;;4969418;28;20036;-74
2022/09/23 11:38:51;;;;;;;3.70;1.70;;;18.10;85.40;;;;;;4971645;28;20023;-74
2022/09/23 11:41:22;;;;;;;3.00;1.58;;;18.10;85.90;;;;;;4969191;28;20101;-74
2022/09/23 11:43:54;;;;;;;4.30;1.65;;;18.10;83.80;;;;;;4969946;28;20313;-74
2022/09/23 11:46:33;;;;;;;2.20;1.40;;;18.20;85.00;;;;;;4968228;28;20030;-73
2022/09/23 11:49:14;;;;;;;3.00;2.03;;;18.20;84.90;;;;;;4977036;28;20113;-73
2022/09/23 11:51:52;;;;;;;2.63;1.80;;;18.20;84.50;;;;;;4973083;28;20030;-73
2022/09/23 11:54:33;;;;;;;2.60;1.77;;;18.30;85.20;;;;;;4975557;28;20039;-74
2022/09/23 11:57:02;;;;;;;2.92;1.80;;;18.30;84.80;;;;;;4968511;28;20037;-73
2022/09/23 11:59:50;;;;;;;2.45;1.60;;;18.30;84.40;;;;;;4970088;28;20030;-72
2022/09/23 12:02:19;;;;;;;2.33;1.63;;;18.40;84.50;;;;;;4968697;28;20077;-72
2022/09/23 12:04:55;;;;;;;3.92;2.00;;;18.40;83.90;;;;;;4967476;28;20121;-73
2022/09/23 12:07:55;;;;;;;3.30;1.70;;;18.40;83.70;;;;;;4973043;28;22219;-73
2022/09/23 12:10:29;;;;;;;3.65;1.98;;;18.40;83.10;;;;;;4970024;28;20493;-73
2022/09/23 12:13:17;;;;;;;2.22;1.60;;;18.50;83.60;;;;;;4975527;28;20482;-73
2022/09/23 12:16:10;;;;;;;2.75;1.38;;;18.50;81.90;;;;;;4973895;28;20049;-73
2022/09/23 12:18:59;;;;;;;2.45;1.60;;;18.50;82.90;;;;;;4975510;28;20720;-73
2022/09/23 12:21:45;;;;;;;2.38;1.50;;;18.40;81.60;;;;;;4972415;28;20173;-73
2022/09/23 12:24:43;;;;;;;2.50;1.67;;;18.50;81.70;;;;;;4956956;28;20034;-73
2022/09/23 12:27:22;;;;;;;4.65;2.33;;;18.50;82.40;;;;;;4971028;28;20046;-72
2022/09/23 12:29:55;;;;;;;3.15;1.70;;;18.50;80.70;;;;;;4976363;28;20034;-72
2022/09/23 12:32:23;;;;;;;4.32;1.83;;;18.50;81.40;;;;;;4981316;28;20069;-73
2022/09/23 12:34:50;;;;;;;3.08;1.60;;;18.50;81.20;;;;;;4957475;28;20030;-71
2022/09/23 12:37:37;;;;;;;2.50;1.70;;;18.50;81.40;;;;;;4979341;28;20434;-71
2022/09/23 12:40:33;;;;;;;2.42;1.70;;;18.60;82.90;;;;;;4977171;28;20117;-72
2022/09/23 12:43:01;;;;;;;2.58;1.75;;;18.60;82.20;;;;;;4976028;28;20042;-74
2022/09/23 12:45:31;;;;;;;2.17;1.52;;;18.60;80.60;;;;;;4975965;28;20396;-73
2022/09/23 12:47:58;;;;;;;7.03;1.83;;;18.60;80.70;;;;;;4974367;28;20121;-74
2022/09/23 12:50:46;;;;;;;2.60;1.70;;;18.60;82.00;;;;;;4970290;28;20124;-73
2022/09/23 12:53:33;;;;;;;2.50;1.70;;;18.70;81.80;;;;;;4966759;28;20497;-73
2022/09/23 12:56:27;;;;;;;2.60;1.50;;;18.70;81.50;;;;;;4972479;28;20037;-71
2022/09/23 12:58:56;;;;;;;2.85;1.70;;;18.70;81.10;;;;;;4967342;28;20041;-73
2022/09/23 13:01:23;;;;;;;2.45;1.45;;;18.80;80.10;;;;;;4972703;28;20053;-73
2022/09/23 13:06:57;;;;;;;2.40;1.67;;;18.80;80.20;;;;;;4973837;28;20638;-72
2022/09/23 13:09:32;;;;;;;2.67;1.58;;;18.80;79.30;;;;;;4973515;28;20053;-72
2022/09/23 13:12:00;;;;;;;2.42;1.60;;;18.70;79.70;;;;;;4972573;28;20051;-74
2022/09/23 13:14:28;;;;;;;1.98;1.58;;;18.80;79.40;;;;;;4973754;28;20148;-72
2022/09/23 13:16:57;;;;;;;1.95;1.65;;;18.80;78.60;;;;;;4970653;28;20030;-73
2022/09/23 13:19:25;;;;;;;4.15;2.10;;;18.80;79.20;;;;;;4974219;28;20057;-72
2022/09/23 13:21:58;;;;;;;3.42;1.38;;;18.90;78.50;;;;;;4972207;28;20050;-72
2022/09/23 13:24:23;;;;;;;2.67;1.80;;;18.90;78.20;;;;;;4973579;28;20034;-75
2022/09/23 13:26:49;;;;;;;3.08;1.80;;;19.00;77.80;;;;;;4977760;28;20026;-73
2022/09/23 13:29:35;;;;;;;2.50;1.35;;;19.00;77.80;;;;;;4981997;28;20681;-73
2022/09/23 13:32:04;;;;;;;2.00;1.40;;;19.00;77.10;;;;;;4976285;28;20046;-73